Time;durP1;ratioP1;P1;durP2;ratioP2;P2;SDS_P1;SDS_P2;PMS_P1;PMS_P2;Temp;Humidity;BMP_temperature;BMP_pressure;BME280_temperature;BME280_humidity;BME280_pressure;Samples;Min_cycle;Max_cycle;Signal;HPM_P1;HPM_P2
2023/02/14 00:01:19;;;;;;;5.40;3.70;;;9.20;99.90;;;;;;4896064;29;20488;-77
2023/02/14 00:03:50;;;;;;;5.80;4.70;;;9.20;99.90;;;;;;4897177;29;20886;-77
2023/02/14 00:06:16;;;;;;;5.40;4.23;;;9.20;99.90;;;;;;4896975;29;20952;-77
2023/02/14 00:08:45;;;;;;;5.23;4.27;;;9.10;99.90;;;;;;4897236;29;20432;-77
2023/02/14 00:11:12;;;;;;;5.00;3.80;;;9.10;99.90;;;;;;4911565;29;20454;-77
2023/02/14 00:15:20;;;;;;;4.23;3.83;;;9.10;99.90;;;;;;4883080;29;20987;-77
2023/02/14 00:16:24;;;;;;;5.20;4.20;;;9.10;99.90;;;;;;4883573;29;20501;-77
2023/02/14 00:19:05;;;;;;;5.03;4.30;;;9.10;99.90;;;;;;4883166;29;20513;-77
2023/02/14 00:21:34;;;;;;;6.10;4.43;;;9.10;99.90;;;;;;4898739;29;20479;-77
2023/02/14 00:24:02;;;;;;;6.37;4.20;;;9.10;99.90;;;;;;4899404;29;20429;-77
2023/02/14 00:26:29;;;;;;;5.20;4.13;;;9.10;99.90;;;;;;4898937;29;20508;-77
2023/02/14 00:28:57;;;;;;;5.83;4.33;;;9.10;99.90;;;;;;4878097;29;20948;-77
2023/02/14 00:31:23;;;;;;;5.70;3.87;;;9.00;99.90;;;;;;4864390;29;20459;-77
2023/02/14 00:33:51;;;;;;;5.60;4.00;;;9.00;99.90;;;;;;4880224;29;20415;-77
2023/02/14 00:36:20;;;;;;;7.20;4.43;;;9.00;99.90;;;;;;4864570;29;20494;-77
2023/02/14 00:38:52;;;;;;;5.87;4.07;;;9.00;99.90;;;;;;4864695;29;20464;-77
2023/02/14 00:41:18;;;;;;;4.73;4.03;;;9.00;99.90;;;;;;4879900;29;20419;-77
2023/02/14 00:43:46;;;;;;;6.03;4.33;;;9.00;99.90;;;;;;4864674;29;21039;-77
2023/02/14 00:46:16;;;;;;;5.83;3.90;;;9.00;99.90;;;;;;4880153;29;20506;-77
2023/02/14 00:48:42;;;;;;;5.13;4.07;;;9.00;99.90;;;;;;4880021;29;20426;-77
2023/02/14 00:51:17;;;;;;;4.50;3.97;;;9.00;99.90;;;;;;4879737;29;20470;-77
2023/02/14 00:53:47;;;;;;;4.03;3.57;;;9.00;99.90;;;;;;4879228;29;20575;-77
2023/02/14 00:56:14;;;;;;;5.67;4.10;;;8.90;99.90;;;;;;4897751;29;20461;-77
2023/02/14 00:58:44;;;;;;;7.33;4.87;;;8.90;99.90;;;;;;4879271;29;20434;-77
2023/02/14 01:01:11;;;;;;;5.03;4.53;;;8.90;99.90;;;;;;4863711;29;20508;-77
2023/02/14 01:03:38;;;;;;;5.30;4.10;;;8.90;99.90;;;;;;4879025;29;20421;-76
2023/02/14 01:06:05;;;;;;;5.10;4.20;;;8.90;99.90;;;;;;4878746;29;20464;-75
2023/02/14 01:08:33;;;;;;;5.00;3.33;;;8.90;99.90;;;;;;4878653;29;20399;-75
2023/02/14 01:11:19;;;;;;;5.73;4.47;;;8.90;99.90;;;;;;4879553;29;21052;-75
2023/02/14 01:13:53;;;;;;;4.50;3.83;;;8.90;99.90;;;;;;4879740;29;20414;-75
2023/02/14 01:16:21;;;;;;;6.57;4.20;;;8.90;99.90;;;;;;4863359;29;20450;-75
2023/02/14 01:18:48;;;;;;;4.63;4.03;;;8.90;99.90;;;;;;4862929;29;20435;-75
2023/02/14 01:21:24;;;;;;;4.53;3.83;;;8.80;99.90;;;;;;4863062;29;20449;-75
2023/02/14 01:23:53;;;;;;;5.93;4.20;;;8.80;99.90;;;;;;4873435;29;20457;-75
2023/02/14 01:26:22;;;;;;;6.10;4.43;;;8.80;99.90;;;;;;4860717;29;20491;-75
2023/02/14 01:28:49;;;;;;;5.50;4.10;;;8.80;99.90;;;;;;4862431;29;20462;-75
2023/02/14 01:31:18;;;;;;;5.50;4.50;;;8.80;99.90;;;;;;4879189;29;20472;-75
2023/02/14 01:33:45;;;;;;;5.23;4.27;;;8.80;99.90;;;;;;4879008;29;20415;-75
2023/02/14 01:36:19;;;;;;;5.87;4.57;;;8.80;99.90;;;;;;4893440;29;20448;-75
2023/02/14 01:38:48;;;;;;;4.70;3.67;;;8.80;99.90;;;;;;4893606;29;20411;-75
2023/02/14 01:41:17;;;;;;;6.50;4.30;;;8.80;99.90;;;;;;4878876;29;20464;-75
2023/02/14 01:43:54;;;;;;;5.07;4.57;;;8.70;99.90;;;;;;4887191;29;20442;-75
2023/02/14 01:46:24;;;;;;;6.00;4.20;;;8.70;99.90;;;;;;4874878;29;20811;-75
2023/02/14 01:48:56;;;;;;;5.30;4.30;;;8.70;99.90;;;;;;4874409;29;20427;-75
2023/02/14 01:51:23;;;;;;;7.00;4.40;;;8.70;99.90;;;;;;4889862;29;20466;-75
2023/02/14 01:53:54;;;;;;;4.50;3.80;;;8.70;99.90;;;;;;4877771;29;20882;-75
2023/02/14 01:56:28;;;;;;;4.90;4.50;;;8.70;99.90;;;;;;4877850;29;20450;-75
2023/02/14 01:58:59;;;;;;;6.23;3.87;;;8.70;99.90;;;;;;4877906;29;20459;-75
2023/02/14 02:01:25;;;;;;;4.43;3.90;;;8.60;99.90;;;;;;4861902;29;20439;-75
2023/02/14 02:03:57;;;;;;;5.63;4.80;;;8.60;99.90;;;;;;4862342;29;20532;-75
2023/02/14 02:06:35;;;;;;;5.47;3.70;;;8.70;99.90;;;;;;4877517;29;20955;-75
2023/02/14 02:09:22;;;;;;;6.20;4.50;;;8.60;99.90;;;;;;4877677;29;20430;-75
2023/02/14 02:11:51;;;;;;;4.40;3.60;;;8.60;99.90;;;;;;4876882;29;21054;-75
2023/02/14 02:14:20;;;;;;;6.00;4.37;;;8.60;99.90;;;;;;4892756;29;20487;-75
2023/02/14 02:16:49;;;;;;;5.00;3.73;;;8.60;99.90;;;;;;4878648;29;21010;-75
2023/02/14 02:19:30;;;;;;;8.13;4.83;;;8.60;99.90;;;;;;4878577;29;20461;-75
2023/02/14 02:22:14;;;;;;;5.00;3.93;;;8.60;99.90;;;;;;4877141;29;20457;-76
2023/02/14 02:25:15;;;;;;;4.90;4.00;;;8.60;99.90;;;;;;4876554;29;20438;-75
2023/02/14 02:28:10;;;;;;;6.50;4.37;;;8.60;99.90;;;;;;4877503;29;20450;-75
2023/02/14 02:31:14;;;;;;;7.73;3.87;;;8.50;99.90;;;;;;4877067;29;20474;-75
2023/02/14 02:34:11;;;;;;;4.83;3.73;;;8.50;99.90;;;;;;4877442;29;20421;-75
2023/02/14 02:36:55;;;;;;;4.10;3.60;;;8.50;99.90;;;;;;4892301;29;20438;-75
2023/02/14 02:39:35;;;;;;;5.47;3.63;;;8.50;99.90;;;;;;4892768;29;20969;-74
2023/02/14 02:42:04;;;;;;;4.63;3.53;;;8.50;99.90;;;;;;4877377;29;20453;-75
2023/02/14 02:44:43;;;;;;;4.40;3.50;;;8.40;99.90;;;;;;4892607;29;20967;-75
2023/02/14 02:47:30;;;;;;;5.40;3.70;;;8.40;99.90;;;;;;4892449;29;20433;-75
2023/02/14 02:53:43;;;;;;;4.53;3.80;;;8.40;99.90;;;;;;4892285;29;20429;-75
2023/02/14 02:56:48;;;;;;;4.50;3.50;;;8.40;99.90;;;;;;4877107;29;20446;-74
2023/02/14 02:59:24;;;;;;;5.47;4.10;;;8.40;99.90;;;;;;4877065;29;20843;-75
2023/02/14 03:02:19;;;;;;;4.50;3.70;;;8.40;99.90;;;;;;4861281;29;20425;-75
2023/02/14 03:05:00;;;;;;;5.50;3.93;;;8.30;99.90;;;;;;4877010;29;20525;-75
2023/02/14 03:07:38;;;;;;;5.47;4.00;;;8.30;99.90;;;;;;4860903;29;20501;-75
2023/02/14 03:10:13;;;;;;;4.30;3.80;;;8.30;99.90;;;;;;4861254;29;20480;-75
2023/02/14 03:13:06;;;;;;;3.83;3.43;;;8.30;99.90;;;;;;4877222;29;20493;-75
2023/02/14 03:15:34;;;;;;;4.43;3.57;;;8.30;99.90;;;;;;4861464;29;20454;-75
2023/02/14 03:18:25;;;;;;;5.63;4.07;;;8.30;99.90;;;;;;4876625;29;20437;-75
2023/02/14 03:21:02;;;;;;;5.47;4.23;;;8.30;99.90;;;;;;4861328;29;20489;-75
2023/02/14 03:23:38;;;;;;;4.87;3.90;;;8.30;99.90;;;;;;4905190;29;20433;-75
2023/02/14 03:26:18;;;;;;;5.10;4.00;;;8.30;99.90;;;;;;4895289;29;20457;-75
2023/02/14 03:28:44;;;;;;;5.73;4.03;;;8.30;99.90;;;;;;4895429;29;20911;-74
2023/02/14 03:31:23;;;;;;;4.33;3.93;;;8.30;99.90;;;;;;4879693;29;20547;-75
2023/02/14 03:34:28;;;;;;;4.17;3.63;;;8.20;99.90;;;;;;4896814;29;20724;-75
2023/02/14 03:37:02;;;;;;;4.70;3.80;;;8.20;99.90;;;;;;4880372;29;20812;-74
2023/02/14 03:39:59;;;;;;;4.57;3.90;;;8.20;99.90;;;;;;4894985;29;20455;-75
2023/02/14 03:42:40;;;;;;;4.57;3.57;;;8.20;99.90;;;;;;4895509;29;20418;-75
2023/02/14 03:45:11;;;;;;;5.60;4.33;;;8.20;99.90;;;;;;4879902;29;20421;-74
2023/02/14 03:47:42;;;;;;;6.83;4.30;;;8.20;99.90;;;;;;4896705;29;20903;-75
2023/02/14 03:50:20;;;;;;;4.30;3.90;;;8.10;99.90;;;;;;4892584;29;20470;-75
2023/02/14 03:52:50;;;;;;;5.80;4.00;;;8.20;99.90;;;;;;4895669;29;20431;-74
2023/02/14 03:55:25;;;;;;;4.27;3.23;;;8.20;99.90;;;;;;4864408;29;20486;-74
2023/02/14 03:58:23;;;;;;;5.80;4.60;;;8.10;99.90;;;;;;4879970;29;20460;-74
2023/02/14 04:00:54;;;;;;;5.30;4.17;;;8.10;99.90;;;;;;4880111;29;20454;-74
2023/02/14 04:03:26;;;;;;;4.30;3.73;;;8.10;99.90;;;;;;4879994;29;20450;-74
2023/02/14 04:05:52;;;;;;;5.10;4.10;;;8.10;99.90;;;;;;4864544;29;20474;-74
2023/02/14 04:08:27;;;;;;;4.73;3.90;;;8.10;99.90;;;;;;4895300;29;20950;-74
2023/02/14 04:10:56;;;;;;;5.30;4.33;;;8.10;99.90;;;;;;4864865;29;20478;-74
2023/02/14 04:13:25;;;;;;;6.80;4.60;;;8.10;99.90;;;;;;4861468;29;20446;-74
2023/02/14 04:15:51;;;;;;;5.17;4.40;;;8.10;99.90;;;;;;4876363;29;20779;-74
2023/02/14 04:21:01;;;;;;;9.90;4.90;;;8.10;99.90;;;;;;4874696;29;20427;-74
2023/02/14 04:23:27;;;;;;;5.37;4.83;;;8.00;99.90;;;;;;4887380;29;20950;-74
2023/02/14 04:25:55;;;;;;;5.57;4.20;;;8.00;99.90;;;;;;4898241;29;20448;-74
2023/02/14 04:28:22;;;;;;;5.20;4.20;;;8.00;99.90;;;;;;4882829;29;20516;-74
2023/02/14 04:30:48;;;;;;;6.47;4.77;;;8.00;99.90;;;;;;4867435;29;20464;-74
2023/02/14 04:33:13;;;;;;;5.43;4.30;;;8.00;99.90;;;;;;4879752;29;20440;-74
2023/02/14 04:35:42;;;;;;;6.00;4.57;;;8.00;99.90;;;;;;4894586;29;20488;-74
2023/02/14 04:38:08;;;;;;;6.27;5.50;;;8.00;99.90;;;;;;4879612;29;20457;-74
2023/02/14 04:40:34;;;;;;;5.27;4.53;;;8.00;99.90;;;;;;4879244;29;20438;-74
2023/02/14 04:43:00;;;;;;;5.90;4.50;;;8.00;99.90;;;;;;4894855;29;20428;-74
2023/02/14 04:45:26;;;;;;;6.90;5.30;;;8.00;99.90;;;;;;4880439;29;20419;-74
2023/02/14 04:47:55;;;;;;;7.43;6.13;;;8.00;99.90;;;;;;4863744;29;20508;-74
2023/02/14 04:50:24;;;;;;;6.30;5.23;;;7.90;99.90;;;;;;4878844;29;20976;-74
2023/02/14 04:52:51;;;;;;;7.30;4.90;;;7.90;99.90;;;;;;4863644;29;21050;-74
2023/02/14 04:55:19;;;;;;;5.87;5.27;;;7.90;99.90;;;;;;4894570;29;20532;-74
2023/02/14 04:57:45;;;;;;;7.53;5.90;;;7.90;99.90;;;;;;4878845;29;20537;-74
2023/02/14 05:00:11;;;;;;;6.30;5.27;;;7.90;99.90;;;;;;4879996;29;20533;-74
2023/02/14 05:02:42;;;;;;;6.87;5.20;;;7.90;99.90;;;;;;4863473;29;20852;-73
2023/02/14 05:05:08;;;;;;;10.90;5.77;;;7.90;99.90;;;;;;4878350;29;20807;-72
2023/02/14 05:07:34;;;;;;;8.07;5.50;;;7.90;99.90;;;;;;4880052;29;20944;-74
2023/02/14 05:10:04;;;;;;;9.97;5.80;;;7.90;99.90;;;;;;4894066;29;20497;-72
2023/02/14 05:12:30;;;;;;;7.73;5.90;;;7.90;99.90;;;;;;4863612;29;20799;-74
2023/02/14 05:14:56;;;;;;;8.23;6.13;;;7.90;99.90;;;;;;4878623;29;20453;-73
2023/02/14 05:17:22;;;;;;;9.43;6.50;;;7.80;99.90;;;;;;4879717;29;20237;-74
2023/02/14 05:19:51;;;;;;;7.37;6.10;;;7.90;99.90;;;;;;4894128;29;20947;-73
2023/02/14 05:22:19;;;;;;;10.07;6.87;;;7.90;99.90;;;;;;4882605;29;20446;-73
2023/02/14 05:24:45;;;;;;;9.63;6.63;;;7.80;99.90;;;;;;4881591;29;20456;-73
2023/02/14 05:27:15;;;;;;;8.17;6.03;;;7.80;99.90;;;;;;4893980;29;20956;-73
2023/02/14 05:29:41;;;;;;;8.13;6.40;;;7.80;99.90;;;;;;4888026;29;20465;-73
2023/02/14 05:32:07;;;;;;;9.40;6.73;;;7.80;99.90;;;;;;4896890;29;20408;-74
2023/02/14 05:34:33;;;;;;;10.70;6.80;;;7.80;99.90;;;;;;4896983;29;21079;-74
2023/02/14 05:37:02;;;;;;;9.80;6.60;;;7.80;99.90;;;;;;4896919;29;20532;-74
2023/02/14 05:39:30;;;;;;;8.37;5.57;;;7.80;99.90;;;;;;4881538;29;20486;-74
2023/02/14 05:41:56;;;;;;;9.10;6.60;;;7.80;99.90;;;;;;4881243;29;20516;-73
2023/02/14 05:44:22;;;;;;;9.57;6.90;;;7.80;99.90;;;;;;4881080;29;20560;-73
2023/02/14 05:46:48;;;;;;;10.00;6.60;;;7.80;99.90;;;;;;4896816;29;20751;-73
2023/02/14 05:49:19;;;;;;;9.17;6.77;;;7.80;99.90;;;;;;4896892;29;20437;-74
2023/02/14 05:51:47;;;;;;;7.73;6.43;;;7.80;99.90;;;;;;4886741;29;20445;-74
2023/02/14 05:54:15;;;;;;;12.30;6.57;;;7.80;99.90;;;;;;4879085;29;20445;-74
2023/02/14 05:56:41;;;;;;;10.87;6.80;;;7.80;99.90;;;;;;4893307;29;20493;-73
2023/02/14 05:59:10;;;;;;;9.30;6.50;;;7.80;99.90;;;;;;4877960;29;20438;-74
2023/02/14 06:01:38;;;;;;;12.40;6.97;;;7.80;99.90;;;;;;4878018;29;20414;-74
2023/02/14 06:04:06;;;;;;;8.10;6.30;;;7.70;99.90;;;;;;4893304;29;20406;-73
2023/02/14 06:06:32;;;;;;;10.40;7.00;;;7.70;99.90;;;;;;4877941;29;21023;-73
2023/02/14 06:08:58;;;;;;;10.10;6.90;;;7.70;99.90;;;;;;4877797;29;20470;-74
2023/02/14 06:11:27;;;;;;;8.77;6.73;;;7.70;99.90;;;;;;4876719;29;20456;-74
2023/02/14 06:13:55;;;;;;;8.83;7.37;;;7.70;99.90;;;;;;4877629;29;20908;-74
2023/02/14 06:16:21;;;;;;;10.73;6.67;;;7.70;99.90;;;;;;4878723;29;20844;-74
2023/02/14 06:18:50;;;;;;;10.80;7.47;;;7.70;99.90;;;;;;4877835;29;20457;-73
2023/02/14 06:21:15;;;;;;;11.30;7.50;;;7.70;99.90;;;;;;4882878;29;20810;-74
2023/02/14 06:23:41;;;;;;;10.63;7.33;;;7.70;99.90;;;;;;4880393;29;20452;-73
2023/02/14 06:26:07;;;;;;;9.37;6.87;;;7.70;99.90;;;;;;4877129;29;21049;-74
2023/02/14 06:28:36;;;;;;;12.07;8.00;;;7.60;99.90;;;;;;4862432;29;20796;-74
2023/02/14 06:31:04;;;;;;;9.40;6.57;;;7.60;99.90;;;;;;4877180;29;20497;-74
2023/02/14 06:33:32;;;;;;;8.00;6.60;;;7.60;99.90;;;;;;4877507;29;20426;-74
2023/02/14 06:35:58;;;;;;;9.60;7.37;;;7.70;99.90;;;;;;4877198;29;20475;-74
2023/02/14 06:38:24;;;;;;;11.47;8.07;;;7.70;99.90;;;;;;4877225;29;20430;-72
2023/02/14 06:40:50;;;;;;;9.47;6.80;;;7.60;99.90;;;;;;4892657;29;20405;-73
2023/02/14 06:43:23;;;;;;;10.60;7.87;;;7.60;99.90;;;;;;4878484;29;20424;-75
2023/02/14 06:45:53;;;;;;;12.47;7.77;;;7.60;99.90;;;;;;4892635;29;20403;-74
2023/02/14 06:48:19;;;;;;;10.63;7.90;;;7.60;99.90;;;;;;4878452;29;20419;-72
2023/02/14 06:50:51;;;;;;;10.33;7.23;;;7.60;99.90;;;;;;4878101;29;20841;-72
2023/02/14 06:53:18;;;;;;;8.57;7.43;;;7.60;99.90;;;;;;4904102;29;20453;-73
2023/02/14 06:55:44;;;;;;;11.20;7.40;;;7.60;99.90;;;;;;4895612;29;20899;-72
2023/02/14 06:58:10;;;;;;;11.37;7.93;;;7.50;99.90;;;;;;4893667;29;20408;-73
2023/02/14 07:00:36;;;;;;;10.37;7.33;;;7.60;99.90;;;;;;4876991;29;20453;-74
2023/02/14 07:03:06;;;;;;;10.10;7.77;;;7.50;99.90;;;;;;4877099;29;20438;-73
2023/02/14 07:05:35;;;;;;;11.37;7.30;;;7.60;99.90;;;;;;4876953;29;20426;-73
2023/02/14 07:08:02;;;;;;;12.70;9.20;;;7.50;99.90;;;;;;4877331;29;20458;-74
2023/02/14 07:10:31;;;;;;;10.80;8.00;;;7.50;99.90;;;;;;4861434;29;20477;-73
2023/02/14 07:13:00;;;;;;;10.70;8.07;;;7.50;99.90;;;;;;4861917;29;20776;-75
2023/02/14 07:15:29;;;;;;;14.97;8.53;;;7.50;99.90;;;;;;4877082;29;20453;-74
2023/02/14 07:17:57;;;;;;;13.23;8.30;;;7.50;99.90;;;;;;4891655;29;20461;-74
2023/02/14 07:20:23;;;;;;;10.57;7.40;;;7.50;99.90;;;;;;4876573;29;20445;-74
2023/02/14 07:22:49;;;;;;;12.10;7.57;;;7.50;99.90;;;;;;4873049;29;20450;-73
2023/02/14 07:25:15;;;;;;;10.53;8.13;;;7.50;99.90;;;;;;4877571;29;20475;-73
2023/02/14 07:27:44;;;;;;;12.97;8.10;;;7.50;99.90;;;;;;4877426;29;20542;-73
2023/02/14 07:30:11;;;;;;;10.90;8.13;;;7.50;99.90;;;;;;4877080;29;20453;-73
2023/02/14 07:32:40;;;;;;;13.70;7.80;;;7.50;99.90;;;;;;4861874;29;20490;-74
2023/02/14 07:35:09;;;;;;;11.77;8.37;;;7.50;99.90;;;;;;4877337;29;20414;-74
2023/02/14 07:37:40;;;;;;;14.03;8.07;;;7.40;99.90;;;;;;4862016;29;20502;-73
2023/02/14 07:40:11;;;;;;;13.03;8.20;;;7.50;99.90;;;;;;4876855;29;20417;-74
2023/02/14 07:42:40;;;;;;;13.30;8.30;;;7.40;99.90;;;;;;4861891;29;20927;-73
2023/02/14 07:45:09;;;;;;;12.70;9.33;;;7.40;99.90;;;;;;4892707;29;20432;-73
2023/02/14 07:47:40;;;;;;;12.50;8.50;;;7.40;99.90;;;;;;4895128;29;20469;-73
2023/02/14 07:50:08;;;;;;;14.17;9.77;;;7.40;99.90;;;;;;4880045;29;20584;-73
2023/02/14 07:52:34;;;;;;;11.80;8.60;;;7.40;99.90;;;;;;4880311;29;20485;-73
2023/02/14 07:55:00;;;;;;;14.97;10.27;;;7.40;99.90;;;;;;4879471;29;20698;-73
2023/02/14 07:57:26;;;;;;;11.70;8.07;;;7.40;99.90;;;;;;4880146;29;20879;-73
2023/02/14 07:59:52;;;;;;;12.97;8.40;;;7.40;99.90;;;;;;4880069;29;20429;-73
2023/02/14 08:02:19;;;;;;;13.47;8.33;;;7.40;99.90;;;;;;4881208;29;20470;-73
2023/02/14 08:04:45;;;;;;;16.40;9.20;;;7.40;99.90;;;;;;4880171;29;20445;-73
2023/02/14 08:07:11;;;;;;;15.07;9.50;;;7.40;99.90;;;;;;4895236;29;20822;-74
2023/02/14 08:09:37;;;;;;;16.90;10.37;;;7.40;99.90;;;;;;4895325;29;20414;-73
2023/02/14 08:14:51;;;;;;;18.07;10.30;;;7.40;99.90;;;;;;4891671;29;20945;-74
2023/02/14 08:17:17;;;;;;;18.73;10.97;;;7.40;99.90;;;;;;4897495;29;20812;-73
2023/02/14 08:19:43;;;;;;;15.40;10.03;;;7.40;99.90;;;;;;4879724;29;20567;-73
2023/02/14 08:22:09;;;;;;;17.17;10.93;;;7.40;99.90;;;;;;4864372;29;20444;-73
2023/02/14 08:24:35;;;;;;;16.00;10.53;;;7.40;99.90;;;;;;4879692;29;20819;-74
2023/02/14 08:27:03;;;;;;;14.70;11.00;;;7.40;99.90;;;;;;4879614;29;20468;-73
2023/02/14 08:29:34;;;;;;;15.40;10.10;;;7.30;99.90;;;;;;4879096;29;20803;-73
2023/02/14 08:32:00;;;;;;;17.33;11.30;;;7.40;99.90;;;;;;4879273;29;20457;-73
2023/02/14 08:34:28;;;;;;;19.00;11.60;;;7.40;99.90;;;;;;4880125;29;20939;-73
2023/02/14 08:36:54;;;;;;;15.03;10.10;;;7.30;99.90;;;;;;4882635;29;20453;-73
2023/02/14 08:39:20;;;;;;;18.37;11.97;;;7.30;99.90;;;;;;4898632;29;20415;-73
2023/02/14 08:41:46;;;;;;;15.70;11.77;;;7.30;99.90;;;;;;4860577;29;20525;-73
2023/02/14 08:44:12;;;;;;;15.20;9.80;;;7.30;99.90;;;;;;4860992;29;20425;-73
2023/02/14 08:46:38;;;;;;;17.57;10.27;;;7.30;99.90;;;;;;4860626;29;20809;-73
2023/02/14 08:49:06;;;;;;;16.93;11.10;;;7.30;99.90;;;;;;4861886;29;20433;-73
2023/02/14 08:51:32;;;;;;;17.47;11.33;;;7.30;99.90;;;;;;4875875;29;20538;-73
2023/02/14 08:53:58;;;;;;;19.17;11.10;;;7.40;99.90;;;;;;4875799;29;20483;-73
2023/02/14 08:56:29;;;;;;;18.87;10.67;;;7.30;99.90;;;;;;4861661;29;20442;-73
2023/02/14 08:58:59;;;;;;;15.73;10.60;;;7.40;99.90;;;;;;4867840;29;20447;-73
2023/02/14 09:01:27;;;;;;;20.17;12.70;;;7.30;99.90;;;;;;4882271;29;20436;-73
2023/02/14 09:03:53;;;;;;;19.90;11.83;;;7.30;99.90;;;;;;4882444;29;20838;-73
2023/02/14 09:06:19;;;;;;;22.50;12.70;;;7.40;99.90;;;;;;4892141;29;20469;-72
2023/02/14 09:08:48;;;;;;;17.80;11.40;;;7.40;99.90;;;;;;4893215;29;20451;-71
2023/02/14 09:11:20;;;;;;;16.03;10.80;;;7.40;99.90;;;;;;4878883;29;20901;-71
2023/02/14 09:13:48;;;;;;;16.55;12.10;;;7.40;99.90;;;;;;4894466;29;20410;-72
2023/02/14 09:16:19;;;;;;;15.70;10.77;;;7.40;99.90;;;;;;4863415;29;20738;-72
2023/02/14 09:18:48;;;;;;;17.17;11.83;;;7.40;99.90;;;;;;4863285;29;20461;-71
2023/02/14 09:21:16;;;;;;;14.82;10.90;;;7.40;99.90;;;;;;4878326;29;20410;-72
2023/02/14 09:23:44;;;;;;;14.87;11.37;;;7.40;99.90;;;;;;4864132;29;20194;-72
2023/02/14 09:26:14;;;;;;;16.10;11.23;;;7.40;99.90;;;;;;4860098;29;20459;-71
2023/02/14 09:28:40;;;;;;;18.30;11.50;;;7.40;99.90;;;;;;4875196;29;20980;-72
2023/02/14 09:31:20;;;;;;;18.10;11.73;;;7.40;99.90;;;;;;4860918;29;20491;-72
2023/02/14 09:33:47;;;;;;;22.53;11.27;;;7.50;99.90;;;;;;4878295;29;20425;-72
2023/02/14 09:36:14;;;;;;;18.20;11.77;;;7.50;99.90;;;;;;4878348;29;20451;-71
2023/02/14 09:38:40;;;;;;;18.17;12.40;;;7.50;99.90;;;;;;4879373;29;20468;-72
2023/02/14 09:41:09;;;;;;;20.13;12.20;;;7.50;99.90;;;;;;4863084;29;20939;-72
2023/02/14 09:43:50;;;;;;;19.00;11.40;;;7.50;99.90;;;;;;4878523;29;20740;-71
2023/02/14 09:46:17;;;;;;;18.70;11.90;;;7.50;99.90;;;;;;4878667;29;20445;-72
2023/02/14 09:48:49;;;;;;;17.73;11.10;;;7.50;99.90;;;;;;4863062;29;20435;-71
2023/02/14 09:51:25;;;;;;;18.47;11.93;;;7.50;99.90;;;;;;4878440;29;20461;-70
2023/02/14 09:54:00;;;;;;;18.67;11.60;;;7.50;99.90;;;;;;4879228;29;20488;-71
2023/02/14 09:57:01;;;;;;;18.40;13.03;;;7.50;99.90;;;;;;4893083;29;20497;-72
2023/02/14 09:59:46;;;;;;;17.30;12.03;;;7.60;99.90;;;;;;4863458;29;20450;-70
2023/02/14 10:02:56;;;;;;;17.80;11.90;;;7.60;99.90;;;;;;4876710;29;20413;-70
2023/02/14 10:05:44;;;;;;;17.10;11.57;;;7.60;99.90;;;;;;4878547;29;20436;-71
2023/02/14 10:08:36;;;;;;;15.47;11.73;;;7.60;99.90;;;;;;5068537;28;21036;-71
2023/02/14 10:11:09;;;;;;;18.90;12.00;;;7.60;99.90;;;;;;5055245;28;20805;-71
2023/02/14 10:13:47;;;;;;;20.20;12.80;;;7.70;99.90;;;;;;5031613;28;20421;-71
2023/02/14 10:16:31;;;;;;;18.57;12.03;;;7.70;99.90;;;;;;5061525;28;20459;-71
2023/02/14 10:19:05;;;;;;;17.80;11.80;;;7.70;99.90;;;;;;5089409;28;20749;-71
2023/02/14 10:21:47;;;;;;;19.20;13.20;;;7.80;99.90;;;;;;5088907;28;20400;-71
2023/02/14 10:24:20;;;;;;;22.33;12.83;;;7.70;99.90;;;;;;5048981;28;20957;-71
2023/02/14 10:26:51;;;;;;;19.60;12.20;;;7.80;99.90;;;;;;5031253;28;20473;-71
2023/02/14 10:29:18;;;;;;;18.77;12.20;;;7.80;99.90;;;;;;5048764;28;20914;-71
2023/02/14 10:31:57;;;;;;;19.60;12.70;;;7.80;99.90;;;;;;5047367;28;20414;-71
2023/02/14 10:34:46;;;;;;;15.80;11.37;;;7.80;99.90;;;;;;5031064;28;20395;-71
2023/02/14 10:37:29;;;;;;;21.47;14.07;;;7.80;99.90;;;;;;5031191;28;20603;-71
2023/02/14 10:40:05;;;;;;;21.40;13.20;;;7.90;99.90;;;;;;5047419;28;20922;-71
2023/02/14 10:42:33;;;;;;;17.10;12.10;;;7.90;99.90;;;;;;5047399;28;20453;-71
2023/02/14 10:45:15;;;;;;;19.23;12.50;;;7.90;99.90;;;;;;5088477;28;20433;-71
2023/02/14 10:47:50;;;;;;;17.10;12.27;;;7.90;99.90;;;;;;5053932;28;20475;-71
2023/02/14 10:50:31;;;;;;;18.83;13.07;;;8.00;99.90;;;;;;5054517;28;20493;-71
2023/02/14 10:53:04;;;;;;;17.90;12.33;;;8.00;99.90;;;;;;5057028;28;20953;-71
2023/02/14 10:55:49;;;;;;;17.93;12.60;;;8.00;99.90;;;;;;5046537;28;20391;-72
2023/02/14 10:58:22;;;;;;;20.00;12.73;;;8.00;99.90;;;;;;5028909;28;20437;-72
2023/02/14 11:01:16;;;;;;;16.93;11.73;;;8.00;99.90;;;;;;5028863;28;20451;-71
2023/02/14 11:03:51;;;;;;;18.47;12.60;;;8.00;99.90;;;;;;5031989;28;20955;-70
2023/02/14 11:06:21;;;;;;;17.87;11.93;;;8.10;99.90;;;;;;5047672;28;20988;-71
2023/02/14 11:08:49;;;;;;;20.97;13.00;;;8.10;99.90;;;;;;5064203;28;20436;-72
2023/02/14 11:11:27;;;;;;;18.40;11.90;;;8.10;99.90;;;;;;5045164;28;20509;-69
2023/02/14 11:13:57;;;;;;;18.43;12.80;;;8.10;99.90;;;;;;5047756;28;20397;-72
2023/02/14 11:16:36;;;;;;;21.50;13.03;;;8.10;99.90;;;;;;5046871;28;20434;-72
2023/02/14 11:19:13;;;;;;;20.40;11.57;;;8.20;99.90;;;;;;5037321;28;20415;-72
2023/02/14 11:21:48;;;;;;;19.57;13.00;;;8.20;99.90;;;;;;5034149;28;20529;-71
2023/02/14 11:24:40;;;;;;;18.50;12.30;;;8.20;99.90;;;;;;5018066;28;20490;-72
2023/02/14 11:27:11;;;;;;;17.50;12.67;;;8.20;99.90;;;;;;5034052;28;21104;-72
2023/02/14 11:29:40;;;;;;;17.40;11.67;;;8.20;99.90;;;;;;5017634;28;20450;-72
2023/02/14 11:32:14;;;;;;;19.07;12.83;;;8.30;99.90;;;;;;5033919;28;20424;-72
2023/02/14 11:34:44;;;;;;;20.10;12.43;;;8.30;99.90;;;;;;5050541;28;20880;-72
2023/02/14 11:37:31;;;;;;;19.30;12.17;;;8.30;99.90;;;;;;5035147;28;20447;-72
2023/02/14 11:40:01;;;;;;;16.67;11.80;;;8.30;99.90;;;;;;5034587;28;20928;-72
2023/02/14 11:42:39;;;;;;;20.57;12.77;;;8.40;99.90;;;;;;5034432;28;20522;-72
2023/02/14 11:45:25;;;;;;;17.80;11.00;;;8.40;99.90;;;;;;5035513;28;20889;-72
2023/02/14 11:48:24;;;;;;;17.80;11.80;;;8.40;99.90;;;;;;5033529;28;20976;-70
2023/02/14 11:51:01;;;;;;;19.20;12.60;;;8.40;99.90;;;;;;5050289;28;20428;-71
2023/02/14 11:53:52;;;;;;;16.83;11.70;;;8.40;99.90;;;;;;5016994;28;20402;-72
2023/02/14 11:56:22;;;;;;;18.10;11.00;;;8.50;99.90;;;;;;5034660;28;21037;-72
2023/02/14 11:58:55;;;;;;;17.50;12.17;;;8.50;99.90;;;;;;5033411;28;20438;-71
2023/02/14 12:01:28;;;;;;;14.30;10.83;;;8.50;99.90;;;;;;5017376;28;20434;-72
2023/02/14 12:03:57;;;;;;;17.30;11.53;;;8.50;99.90;;;;;;5033364;28;20499;-72
2023/02/14 12:06:30;;;;;;;18.37;12.13;;;8.60;99.90;;;;;;5033303;28;20887;-72
2023/02/14 12:09:21;;;;;;;16.83;12.30;;;8.60;99.90;;;;;;5016953;28;20419;-71
2023/02/14 12:12:22;;;;;;;16.23;11.30;;;8.60;99.90;;;;;;5033361;28;20939;-71
2023/02/14 12:14:50;;;;;;;16.77;11.83;;;8.60;99.90;;;;;;5033471;28;20893;-71
2023/02/14 12:17:33;;;;;;;19.47;11.53;;;8.60;99.90;;;;;;5033103;28;20462;-71
2023/02/14 12:20:13;;;;;;;19.27;12.10;;;8.60;99.90;;;;;;5014951;28;20431;-71
2023/02/14 12:22:46;;;;;;;17.43;11.00;;;8.60;99.90;;;;;;5034234;28;20819;-71
2023/02/14 12:25:28;;;;;;;16.90;11.50;;;8.60;99.90;;;;;;5016720;28;20967;-71
2023/02/14 12:28:02;;;;;;;16.80;11.33;;;8.70;99.90;;;;;;5016248;28;20463;-71
2023/02/14 12:30:32;;;;;;;18.40;11.30;;;8.70;99.90;;;;;;5032016;28;20438;-71
2023/02/14 12:32:59;;;;;;;16.10;11.63;;;8.70;99.90;;;;;;5033046;28;20510;-71
2023/02/14 12:35:49;;;;;;;15.40;10.90;;;8.70;99.90;;;;;;5032846;28;20403;-71
2023/02/14 12:38:24;;;;;;;18.33;11.90;;;8.80;99.90;;;;;;5033928;28;20399;-71
2023/02/14 12:41:13;;;;;;;17.60;10.87;;;8.80;99.90;;;;;;5033713;28;20403;-71
2023/02/14 12:43:52;;;;;;;16.53;11.27;;;8.80;99.90;;;;;;5032535;28;20404;-71
2023/02/14 12:46:40;;;;;;;15.60;10.90;;;8.80;99.90;;;;;;5015992;28;20455;-71
2023/02/14 12:49:37;;;;;;;18.60;12.20;;;8.80;99.90;;;;;;5032480;28;20442;-71
2023/02/14 12:52:22;;;;;;;17.90;11.33;;;8.80;99.90;;;;;;5016040;28;20461;-71
2023/02/14 12:55:31;;;;;;;17.73;12.87;;;8.80;99.90;;;;;;5016469;28;20778;-71
2023/02/14 12:58:17;;;;;;;16.43;10.90;;;8.90;99.90;;;;;;5032243;28;20841;-71
2023/02/14 13:01:12;;;;;;;16.83;11.40;;;8.90;99.90;;;;;;5033493;28;20438;-71
2023/02/14 13:03:57;;;;;;;18.30;11.70;;;8.90;99.90;;;;;;5012445;28;20944;-71
2023/02/14 13:06:33;;;;;;;19.80;11.70;;;8.90;99.90;;;;;;5032149;28;21014;-71
2023/02/14 13:09:23;;;;;;;18.13;11.30;;;8.90;99.90;;;;;;5032328;28;20780;-71
2023/02/14 13:12:25;;;;;;;18.33;11.57;;;8.90;99.90;;;;;;5048678;28;20940;-71
2023/02/14 13:15:22;;;;;;;18.73;10.63;;;8.90;99.90;;;;;;5011990;28;20423;-71
2023/02/14 13:18:14;;;;;;;19.07;12.47;;;9.00;99.90;;;;;;5012847;28;20972;-71
2023/02/14 13:20:48;;;;;;;17.63;11.83;;;9.00;99.90;;;;;;4997423;28;20428;-71
2023/02/14 13:23:40;;;;;;;17.97;11.50;;;9.00;99.90;;;;;;5031849;28;20451;-71
2023/02/14 13:26:18;;;;;;;17.27;11.23;;;9.00;99.90;;;;;;5015456;28;20462;-71
2023/02/14 13:28:54;;;;;;;16.27;11.67;;;9.00;99.90;;;;;;5015465;28;20431;-71